createdAt,value
2019-02-21T00:01:17.715Z,4.70
2019-02-21T00:03:51.165Z,4.70
2019-02-21T00:06:23.348Z,4.70
2019-02-21T00:08:55.887Z,4.27
2019-02-21T00:11:28.073Z,3.60
2019-02-21T00:14:01.390Z,3.83
2019-02-21T00:16:34.329Z,3.40
2019-02-21T00:19:06.870Z,3.37
2019-02-21T00:21:38.439Z,3.72
2019-02-21T00:24:11.034Z,3.00
2019-02-21T00:26:44.326Z,3.10
2019-02-21T00:29:16.779Z,3.20
2019-02-21T00:31:48.742Z,3.23
2019-02-21T00:34:21.387Z,3.40
2019-02-21T00:36:52.815Z,2.97
2019-02-21T00:39:25.147Z,2.80
2019-02-21T00:41:57.328Z,3.07
2019-02-21T00:44:30.862Z,2.77
2019-02-21T00:47:03.333Z,3.07
2019-02-21T00:49:35.878Z,2.42
2019-02-21T00:52:07.786Z,2.60
2019-02-21T00:54:42.127Z,2.80
2019-02-21T00:57:14.737Z,3.43
2019-02-21T00:59:46.379Z,2.80
2019-02-21T01:02:18.357Z,3.70
2019-02-21T01:04:50.972Z,2.80
2019-02-21T01:07:22.986Z,3.23
2019-02-21T01:09:54.259Z,2.57
2019-02-21T01:12:27.023Z,3.07
2019-02-21T01:15:00.827Z,3.00
2019-02-21T01:17:32.553Z,3.10
2019-02-21T01:20:04.825Z,2.90
2019-02-21T01:22:36.873Z,2.70
2019-02-21T01:25:09.353Z,2.77
2019-02-21T01:27:41.149Z,2.67
2019-02-21T01:30:13.869Z,2.73
2019-02-21T01:32:46.304Z,2.80
2019-02-21T01:35:19.103Z,2.77
2019-02-21T01:37:51.622Z,2.83
2019-02-21T01:40:24.269Z,3.10
2019-02-21T01:42:55.768Z,3.03
2019-02-21T01:45:26.264Z,2.87
2019-02-21T01:47:56.795Z,2.83
2019-02-21T01:50:27.353Z,3.02
2019-02-21T01:52:57.858Z,3.07
2019-02-21T01:55:28.381Z,2.97
2019-02-21T01:57:59.911Z,3.60
2019-02-21T02:00:31.551Z,3.20
2019-02-21T02:03:02.055Z,3.60
2019-02-21T02:05:32.792Z,3.67
2019-02-21T02:08:03.894Z,4.03
2019-02-21T02:10:35.249Z,3.83
2019-02-21T02:13:05.810Z,3.73
2019-02-21T02:15:36.351Z,3.67
2019-02-21T02:18:06.961Z,4.00
2019-02-21T02:20:37.937Z,3.50
2019-02-21T02:23:09.069Z,3.77
2019-02-21T02:25:39.616Z,3.57
2019-02-21T02:28:10.201Z,3.50
2019-02-21T02:30:40.759Z,3.63
2019-02-21T02:33:11.872Z,3.23
2019-02-21T02:35:42.401Z,3.43
2019-02-21T02:38:12.934Z,3.30
2019-02-21T02:40:44.828Z,3.10
2019-02-21T02:43:15.814Z,3.60
2019-02-21T02:45:46.324Z,3.00
2019-02-21T02:48:17.177Z,3.83
2019-02-21T02:50:47.748Z,3.30
2019-02-21T02:53:19.688Z,3.00
2019-02-21T02:55:50.231Z,3.17
2019-02-21T02:58:20.861Z,2.93
2019-02-21T03:00:51.397Z,3.17
2019-02-21T03:03:22.209Z,2.90
2019-02-21T03:05:53.249Z,2.73
2019-02-21T03:08:24.257Z,3.00
2019-02-21T03:10:55.442Z,2.60
2019-02-21T03:13:26.612Z,2.67
2019-02-21T03:15:57.815Z,2.37
2019-02-21T03:18:28.445Z,2.60
2019-02-21T03:20:59.474Z,2.03
2019-02-21T03:23:30.513Z,2.20
2019-02-21T03:26:01.457Z,2.30
2019-02-21T03:28:31.943Z,2.00
2019-02-21T03:31:02.481Z,2.27
2019-02-21T03:33:37.547Z,1.83
2019-02-21T03:36:08.092Z,1.67
2019-02-21T03:38:38.700Z,1.90
2019-02-21T03:41:09.323Z,1.50
2019-02-21T03:43:39.964Z,1.60
2019-02-21T03:46:10.500Z,1.47
2019-02-21T03:48:41.454Z,1.50
2019-02-21T03:51:12.053Z,1.60
2019-02-21T03:53:42.991Z,1.60
2019-02-21T03:56:13.666Z,1.47
2019-02-21T03:58:44.199Z,1.60
2019-02-21T04:01:14.717Z,1.70
2019-02-21T04:03:45.309Z,1.63
2019-02-21T04:06:18.322Z,1.70
2019-02-21T04:08:49.552Z,1.50
2019-02-21T04:11:20.059Z,1.60
2019-02-21T04:13:50.587Z,1.37
2019-02-21T04:16:21.155Z,1.30
2019-02-21T04:18:51.897Z,1.47
2019-02-21T04:21:23.003Z,1.40
2019-02-21T04:23:53.746Z,1.40
2019-02-21T04:26:24.560Z,1.23
2019-02-21T04:28:55.075Z,1.47
2019-02-21T04:31:25.644Z,1.40
2019-02-21T04:33:56.130Z,1.33
2019-02-21T04:36:26.651Z,1.20
2019-02-21T04:38:57.145Z,1.40
2019-02-21T04:41:27.680Z,1.10
2019-02-21T04:43:58.167Z,1.10
2019-02-21T04:46:28.723Z,1.30
2019-02-21T04:48:59.260Z,1.00
2019-02-21T04:51:29.779Z,1.20
2019-02-21T04:54:00.288Z,1.10
2019-02-21T04:56:30.905Z,1.27
2019-02-21T04:59:01.436Z,1.13
2019-02-21T05:01:31.980Z,1.20
2019-02-21T05:04:04.925Z,0.93
2019-02-21T05:06:34.671Z,0.90
2019-02-21T05:09:07.527Z,1.10
2019-02-21T05:11:37.952Z,1.20
2019-02-21T05:14:08.903Z,1.07
2019-02-21T05:16:39.614Z,1.00
2019-02-21T05:19:10.147Z,1.10
2019-02-21T05:21:40.666Z,1.10
2019-02-21T05:24:11.177Z,1.10
2019-02-21T05:26:45.777Z,1.17
2019-02-21T05:29:20.179Z,1.13
2019-02-21T05:32:15.798Z,1.20
2019-02-21T05:34:54.884Z,0.90
2019-02-21T05:37:56.603Z,0.97
2019-02-21T05:40:58.171Z,0.90
2019-02-21T05:43:47.815Z,0.97
2019-02-21T05:46:43.483Z,1.27
2019-02-21T05:49:48.287Z,1.03
2019-02-21T05:52:36.765Z,1.10
2019-02-21T05:55:18.867Z,1.03
2019-02-21T05:58:06.594Z,1.10
2019-02-21T06:00:51.606Z,1.10
2019-02-21T06:03:35.725Z,0.90
2019-02-21T06:06:13.633Z,1.00
2019-02-21T06:09:02.695Z,0.90
2019-02-21T06:11:40.371Z,1.00
2019-02-21T06:14:28.067Z,1.00
2019-02-21T06:17:10.698Z,0.80
2019-02-21T06:19:50.710Z,1.10
2019-02-21T06:22:30.508Z,1.00
2019-02-21T06:25:16.499Z,1.17
2019-02-21T06:28:06.362Z,1.10
2019-02-21T06:30:44.212Z,0.80
2019-02-21T06:33:14.762Z,0.80
2019-02-21T06:35:47.296Z,0.70
2019-02-21T06:38:17.774Z,0.73
2019-02-21T06:40:48.339Z,1.03
2019-02-21T06:43:19.146Z,1.00
2019-02-21T06:45:49.682Z,1.00
2019-02-21T06:48:20.252Z,0.80
2019-02-21T06:50:50.784Z,0.80
2019-02-21T06:53:21.692Z,0.60
2019-02-21T06:55:52.369Z,0.90
2019-02-21T06:58:23.468Z,0.73
2019-02-21T07:00:54.640Z,0.60
2019-02-21T07:03:25.184Z,0.77
2019-02-21T07:05:57.397Z,0.70
2019-02-21T07:08:27.952Z,0.60
2019-02-21T07:11:05.821Z,0.70
2019-02-21T07:13:30.992Z,0.60
2019-02-21T07:16:01.509Z,0.70
2019-02-21T07:18:32.519Z,0.60
2019-02-21T07:21:03.525Z,0.60
2019-02-21T07:23:43.138Z,0.50
2019-02-21T07:26:08.959Z,0.40
2019-02-21T07:28:41.587Z,0.40
2019-02-21T07:31:11.761Z,0.60
2019-02-21T07:33:42.584Z,0.60
2019-02-21T07:36:13.098Z,0.50
2019-02-21T07:38:43.637Z,0.60
2019-02-21T07:41:14.268Z,0.50
2019-02-21T07:43:44.989Z,0.50
2019-02-21T07:46:15.535Z,0.40
2019-02-21T07:48:46.423Z,0.40
2019-02-21T07:51:17.306Z,0.30
2019-02-21T07:53:48.181Z,0.50
2019-02-21T07:56:18.995Z,0.40
2019-02-21T07:58:49.871Z,0.50
2019-02-21T08:01:20.883Z,0.20
2019-02-21T08:03:51.890Z,0.40
2019-02-21T08:06:22.580Z,0.30
2019-02-21T08:08:53.190Z,0.45
2019-02-21T08:11:23.713Z,0.30
2019-02-21T08:13:54.211Z,0.50
2019-02-21T08:16:25.182Z,0.23
2019-02-21T08:18:55.705Z,0.20
2019-02-21T08:21:26.417Z,0.30
2019-02-21T08:23:59.118Z,0.30
2019-02-21T08:26:29.388Z,0.20
2019-02-21T08:28:59.916Z,0.20
2019-02-21T08:31:30.468Z,0.30
2019-02-21T08:34:11.040Z,0.30
2019-02-21T08:36:41.996Z,0.20
2019-02-21T08:39:13.202Z,0.20
2019-02-21T08:41:44.208Z,0.20
2019-02-21T08:44:15.225Z,0.20
2019-02-21T08:46:45.741Z,0.30
2019-02-21T08:49:16.229Z,0.10
2019-02-21T08:51:48.127Z,0.27
2019-02-21T08:54:19.139Z,0.20
2019-02-21T08:56:49.654Z,0.20
2019-02-21T08:59:20.179Z,0.27
2019-02-21T09:01:51.570Z,0.23
2019-02-21T09:04:27.250Z,0.20
2019-02-21T09:06:55.068Z,0.20
2019-02-21T09:09:26.348Z,0.40
2019-02-21T09:11:56.873Z,0.30
2019-02-21T09:14:27.375Z,0.30
2019-02-21T09:16:57.922Z,0.30
2019-02-21T09:19:30.601Z,0.20
2019-02-21T09:22:01.054Z,0.20
2019-02-21T09:24:40.005Z,0.20
2019-02-21T09:27:03.843Z,0.20
2019-02-21T09:29:34.360Z,0.20
2019-02-21T09:32:06.877Z,0.30
2019-02-21T09:34:37.086Z,0.30
2019-02-21T09:37:07.619Z,0.40
2019-02-21T09:39:38.107Z,0.30
2019-02-21T09:42:08.652Z,0.20
2019-02-21T09:44:39.195Z,0.20
2019-02-21T09:47:09.828Z,0.47
2019-02-21T09:49:40.371Z,0.30
2019-02-21T09:52:10.899Z,0.50
2019-02-21T09:54:41.418Z,0.20
2019-02-21T09:57:13.568Z,0.20
2019-02-21T09:59:44.290Z,0.20
2019-02-21T10:02:14.808Z,0.30
2019-02-21T10:04:45.365Z,0.20
2019-02-21T10:07:15.912Z,0.20
2019-02-21T10:09:46.495Z,0.30
2019-02-21T10:12:17.800Z,0.20
2019-02-21T10:14:48.386Z,0.20
2019-02-21T10:17:18.924Z,0.30
2019-02-21T10:19:49.493Z,0.40
2019-02-21T10:22:20.213Z,0.30
2019-02-21T10:24:50.814Z,0.20
2019-02-21T10:27:22.184Z,0.53
2019-02-21T10:29:52.728Z,0.27
2019-02-21T10:32:23.272Z,0.30
2019-02-21T10:34:53.858Z,0.30
2019-02-21T10:37:24.407Z,0.30
2019-02-21T10:39:54.957Z,0.13
2019-02-21T10:42:25.555Z,0.27
2019-02-21T10:44:56.500Z,0.40
2019-02-21T10:47:27.012Z,0.20
2019-02-21T10:49:57.911Z,0.20
2019-02-21T10:52:29.671Z,0.27
2019-02-21T10:55:00.343Z,0.37
2019-02-21T10:57:30.883Z,0.40
2019-02-21T11:00:07.199Z,0.50
2019-02-21T11:02:37.787Z,0.20
2019-02-21T11:05:09.062Z,0.20
2019-02-21T11:07:39.579Z,0.27
2019-02-21T11:10:10.471Z,0.27
2019-02-21T11:12:41.023Z,0.50
2019-02-21T11:15:13.099Z,0.20
2019-02-21T11:17:43.674Z,0.30
2019-02-21T11:20:15.707Z,0.30
2019-02-21T11:22:46.219Z,0.20
2019-02-21T11:25:17.161Z,0.10
2019-02-21T11:27:47.711Z,0.20
2019-02-21T11:30:19.816Z,0.17
2019-02-21T11:32:51.463Z,0.17
2019-02-21T11:35:22.016Z,0.20
2019-02-21T11:37:52.555Z,0.30
2019-02-21T11:40:23.054Z,0.10
2019-02-21T11:42:53.925Z,0.10
2019-02-21T11:45:26.804Z,0.30
2019-02-21T11:47:57.340Z,0.10
2019-02-21T11:50:27.821Z,0.10
2019-02-21T11:52:58.463Z,0.30
2019-02-21T11:55:28.993Z,0.10
2019-02-21T11:57:59.437Z,0.13
2019-02-21T12:00:30.299Z,0.10
2019-02-21T12:03:00.822Z,0.20
2019-02-21T12:05:32.117Z,0.33
2019-02-21T12:08:03.027Z,0.20
2019-02-21T12:10:33.539Z,0.20
2019-02-21T12:13:04.018Z,0.30
2019-02-21T12:15:34.546Z,0.13
2019-02-21T12:18:05.290Z,0.10
2019-02-21T12:20:35.861Z,0.15
2019-02-21T12:23:06.426Z,0.20
2019-02-21T12:25:36.982Z,0.20
2019-02-21T12:28:07.611Z,0.20
2019-02-21T12:30:39.386Z,0.10
2019-02-21T12:33:10.171Z,0.10
2019-02-21T12:35:40.740Z,0.20
2019-02-21T12:38:11.235Z,0.30
2019-02-21T12:40:45.310Z,0.10
2019-02-21T12:43:15.831Z,0.10
2019-02-21T12:45:46.364Z,0.20
2019-02-21T12:48:16.895Z,0.10
2019-02-21T12:50:47.432Z,0.20
2019-02-21T12:53:36.460Z,0.27
2019-02-21T12:56:25.363Z,0.20
2019-02-21T12:58:55.928Z,0.10
2019-02-21T13:01:26.448Z,0.20
2019-02-21T13:03:56.983Z,0.30
2019-02-21T13:06:27.571Z,0.20
2019-02-21T13:09:16.683Z,0.30
2019-02-21T13:12:05.791Z,0.20
2019-02-21T13:14:57.650Z,0.20
2019-02-21T13:17:46.587Z,0.20
2019-02-21T13:20:35.386Z,0.20
2019-02-21T13:23:24.456Z,0.30
2019-02-21T13:26:12.899Z,0.40
2019-02-21T13:29:01.543Z,0.33
2019-02-21T13:31:32.275Z,0.50
2019-02-21T13:34:02.833Z,0.30
2019-02-21T13:36:34.077Z,0.40
2019-02-21T13:39:07.350Z,0.30
2019-02-21T13:41:38.594Z,0.30
2019-02-21T13:44:09.135Z,0.30
2019-02-21T13:46:41.284Z,0.30
2019-02-21T13:49:11.982Z,0.40
2019-02-21T13:51:42.497Z,0.40
2019-02-21T13:54:16.044Z,0.30
2019-02-21T13:56:46.619Z,0.30
2019-02-21T13:59:17.464Z,0.23
2019-02-21T14:01:48.022Z,0.30
2019-02-21T14:04:18.636Z,0.30
2019-02-21T14:06:49.181Z,0.30
2019-02-21T14:09:19.734Z,0.80
2019-02-21T14:11:50.854Z,0.23
2019-02-21T14:14:22.035Z,0.33
2019-02-21T14:16:53.131Z,0.30
2019-02-21T14:19:23.624Z,0.20
2019-02-21T14:21:54.155Z,0.20
2019-02-21T14:24:36.003Z,0.20
2019-02-21T14:26:58.061Z,0.30
2019-02-21T14:29:38.848Z,0.33
2019-02-21T14:32:00.932Z,0.20
2019-02-21T14:34:31.468Z,0.30
2019-02-21T14:37:02.446Z,0.30
2019-02-21T14:39:33.318Z,0.40
2019-02-21T14:42:04.675Z,0.30
2019-02-21T14:44:35.582Z,0.30
2019-02-21T14:47:08.035Z,0.40
2019-02-21T14:49:38.272Z,0.40
2019-02-21T14:52:08.855Z,0.50
2019-02-21T14:54:39.446Z,0.30
2019-02-21T14:57:10.092Z,0.40
2019-02-21T14:59:41.007Z,0.50
2019-02-21T15:02:11.695Z,0.30
2019-02-21T15:04:42.411Z,0.40
2019-02-21T15:07:12.910Z,0.30
2019-02-21T15:09:45.581Z,0.23
2019-02-21T15:12:16.014Z,0.40
2019-02-21T15:14:46.780Z,0.47
2019-02-21T15:17:18.650Z,0.40
2019-02-21T15:19:49.641Z,0.40
2019-02-21T15:22:20.643Z,0.30
2019-02-21T15:24:51.368Z,0.30
2019-02-21T15:27:23.615Z,0.57
2019-02-21T15:29:57.291Z,0.47
2019-02-21T15:32:27.462Z,0.40
2019-02-21T15:34:57.958Z,0.33
2019-02-21T15:37:29.005Z,0.27
2019-02-21T15:40:00.352Z,0.30
2019-02-21T15:42:31.517Z,0.33
2019-02-21T15:45:02.048Z,0.20
2019-02-21T15:47:33.102Z,0.20
2019-02-21T15:50:04.740Z,0.20
2019-02-21T15:52:35.338Z,0.20
2019-02-21T15:55:12.169Z,0.30
2019-02-21T15:57:39.428Z,0.30
2019-02-21T16:00:11.936Z,0.30
2019-02-21T16:02:44.364Z,0.37
2019-02-21T16:05:15.019Z,0.20
2019-02-21T16:07:45.615Z,0.20
2019-02-21T16:10:18.907Z,0.20
2019-02-21T16:12:50.194Z,0.33
2019-02-21T16:15:21.425Z,0.50
2019-02-21T16:17:51.976Z,0.30
2019-02-21T16:20:22.603Z,0.40
2019-02-21T16:22:53.244Z,0.40
2019-02-21T16:25:24.275Z,0.40
2019-02-21T16:27:55.637Z,0.30
2019-02-21T16:30:26.357Z,0.37
2019-02-21T16:32:57.183Z,0.50
2019-02-21T16:35:27.782Z,0.40
2019-02-21T16:37:58.284Z,0.40
2019-02-21T16:40:29.128Z,0.60
2019-02-21T16:42:59.963Z,0.40
2019-02-21T16:45:42.863Z,0.60
2019-02-21T16:48:03.187Z,0.50
2019-02-21T16:50:33.720Z,0.37
2019-02-21T16:53:04.643Z,0.50
2019-02-21T16:55:35.300Z,0.50
2019-02-21T16:58:05.800Z,0.40
2019-02-21T17:00:49.847Z,0.40
2019-02-21T17:03:08.528Z,0.50
2019-02-21T17:05:39.151Z,0.90
2019-02-21T17:08:09.829Z,0.60
2019-02-21T17:10:40.366Z,0.60
2019-02-21T17:13:10.864Z,0.55
2019-02-21T17:15:41.355Z,0.50
2019-02-21T17:18:11.872Z,0.53
2019-02-21T17:20:42.364Z,0.50
2019-02-21T17:23:22.561Z,0.73
2019-02-21T17:25:45.026Z,0.50
2019-02-21T17:28:15.507Z,0.67
2019-02-21T17:30:46.035Z,0.40
2019-02-21T17:33:17.118Z,0.60
2019-02-21T17:35:47.663Z,0.27
2019-02-21T17:38:18.197Z,0.30
2019-02-21T17:40:52.083Z,0.40
2019-02-21T17:43:25.441Z,0.20
2019-02-21T17:45:58.969Z,0.30
2019-02-21T17:48:33.052Z,0.30
2019-02-21T17:51:03.547Z,0.40
2019-02-21T17:53:34.068Z,0.37
2019-02-21T17:56:04.568Z,0.40
2019-02-21T17:58:35.101Z,0.47
2019-02-21T18:01:05.801Z,0.43
2019-02-21T18:03:36.263Z,0.70
2019-02-21T18:06:07.074Z,0.50
2019-02-21T18:08:37.608Z,0.50
2019-02-21T18:11:08.643Z,0.35
2019-02-21T18:13:39.137Z,0.60
2019-02-21T18:16:09.651Z,0.50
2019-02-21T18:18:40.152Z,0.40
2019-02-21T18:21:10.714Z,0.50
2019-02-21T18:23:41.505Z,0.40
2019-02-21T18:26:18.339Z,0.50
2019-02-21T18:28:49.042Z,0.50
2019-02-21T18:31:19.519Z,0.57
2019-02-21T18:33:50.094Z,0.53
2019-02-21T18:36:20.627Z,0.90
2019-02-21T18:38:51.597Z,0.70
2019-02-21T18:41:22.655Z,0.60
2019-02-21T18:43:53.204Z,1.10
2019-02-21T18:46:24.218Z,0.90
2019-02-21T18:48:55.652Z,0.70
2019-02-21T18:51:26.593Z,0.77
2019-02-21T18:53:57.521Z,0.50
2019-02-21T18:56:28.192Z,0.90
2019-02-21T18:58:58.687Z,0.87
2019-02-21T19:01:29.194Z,0.80
2019-02-21T19:04:00.103Z,0.70
2019-02-21T19:06:30.587Z,0.77
2019-02-21T19:09:01.483Z,0.80
2019-02-21T19:11:32.095Z,1.07
2019-02-21T19:14:02.939Z,1.10
2019-02-21T19:16:33.665Z,0.70
2019-02-21T19:19:04.165Z,0.90
2019-02-21T19:21:34.951Z,1.10
2019-02-21T19:24:05.452Z,0.70
2019-02-21T19:26:36.103Z,0.97
2019-02-21T19:29:09.403Z,0.63
2019-02-21T19:31:40.289Z,1.00
2019-02-21T19:34:11.223Z,0.80
2019-02-21T19:36:42.616Z,1.20
2019-02-21T19:39:13.235Z,1.10
2019-02-21T19:41:43.726Z,1.27
2019-02-21T19:44:14.336Z,0.90
2019-02-21T19:46:44.831Z,0.90
2019-02-21T19:49:15.303Z,1.10
2019-02-21T19:51:45.830Z,1.10
2019-02-21T19:54:16.976Z,1.10
2019-02-21T19:56:47.554Z,1.40
2019-02-21T19:59:18.513Z,1.10
2019-02-21T20:01:52.258Z,0.97
2019-02-21T20:04:23.159Z,1.27
2019-02-21T20:06:53.684Z,1.03
2019-02-21T20:09:24.190Z,1.00
2019-02-21T20:11:54.674Z,1.07
2019-02-21T20:14:25.189Z,1.00
2019-02-21T20:16:55.719Z,0.87
2019-02-21T20:19:26.213Z,1.13
2019-02-21T20:21:57.620Z,0.90
2019-02-21T20:24:28.111Z,1.20
2019-02-21T20:27:00.311Z,1.10
2019-02-21T20:29:30.693Z,1.20
2019-02-21T20:32:01.391Z,1.00
2019-02-21T20:34:32.027Z,0.80
2019-02-21T20:37:02.522Z,0.83
2019-02-21T20:39:33.358Z,0.70
2019-02-21T20:42:04.123Z,1.10
2019-02-21T20:44:34.593Z,1.40
2019-02-21T20:47:05.451Z,0.80
2019-02-21T20:49:35.939Z,0.93
2019-02-21T20:52:06.951Z,1.37
2019-02-21T20:54:37.562Z,1.30
2019-02-21T20:57:08.051Z,1.00
2019-02-21T20:59:38.552Z,1.00
2019-02-21T21:02:09.359Z,1.03
2019-02-21T21:04:39.845Z,1.13
2019-02-21T21:07:10.352Z,0.87
2019-02-21T21:09:40.875Z,1.13
2019-02-21T21:12:11.359Z,1.07
2019-02-21T21:14:41.834Z,1.20
2019-02-21T21:17:12.331Z,1.03
2019-02-21T21:19:43.315Z,1.07
2019-02-21T21:22:13.823Z,1.40
2019-02-21T21:24:44.298Z,1.13
2019-02-21T21:27:14.927Z,1.00
2019-02-21T21:29:46.000Z,1.00
2019-02-21T21:32:16.616Z,1.17
2019-02-21T21:34:47.980Z,1.37
2019-02-21T21:37:18.892Z,1.40
2019-02-21T21:39:49.702Z,1.23
2019-02-21T21:42:20.272Z,1.30
2019-02-21T21:44:50.773Z,1.10
2019-02-21T21:47:21.659Z,1.20
2019-02-21T21:49:52.123Z,1.27
2019-02-21T21:52:23.109Z,1.03
2019-02-21T21:54:53.610Z,1.07
2019-02-21T21:57:27.303Z,1.30
2019-02-21T21:59:58.227Z,1.10
2019-02-21T22:02:31.021Z,1.27
2019-02-21T22:05:01.484Z,1.20
2019-02-21T22:07:32.387Z,1.20
2019-02-21T22:10:02.850Z,1.30
2019-02-21T22:12:33.347Z,1.00
2019-02-21T22:15:04.280Z,1.13
2019-02-21T22:17:34.752Z,1.33
2019-02-21T22:20:06.719Z,1.10
2019-02-21T22:22:37.846Z,0.90
2019-02-21T22:25:09.459Z,1.30
2019-02-21T22:27:39.945Z,0.80
2019-02-21T22:30:13.155Z,1.00
2019-02-21T22:32:43.669Z,1.20
2019-02-21T22:35:14.127Z,1.20
2019-02-21T22:37:47.726Z,0.90
2019-02-21T22:40:19.016Z,0.90
2019-02-21T22:42:50.387Z,1.03
2019-02-21T22:45:21.023Z,1.10
2019-02-21T22:47:52.001Z,0.87
2019-02-21T22:50:22.528Z,0.90
2019-02-21T22:52:53.622Z,1.30
2019-02-21T22:55:24.216Z,0.90
2019-02-21T22:57:54.786Z,1.10
2019-02-21T23:01:06.392Z,1.27
2019-02-21T23:03:52.553Z,1.00
2019-02-21T23:06:35.351Z,1.03
2019-02-21T23:09:26.984Z,0.90
2019-02-21T23:11:51.858Z,0.87
2019-02-21T23:14:22.408Z,1.30
2019-02-21T23:16:53.118Z,0.83
2019-02-21T23:19:24.266Z,1.33
2019-02-21T23:21:55.269Z,1.10
2019-02-21T23:24:27.077Z,1.03
2019-02-21T23:26:59.289Z,1.40
2019-02-21T23:29:29.792Z,1.23
2019-02-21T23:32:03.097Z,1.17
2019-02-21T23:34:41.279Z,1.20
2019-02-21T23:37:12.811Z,1.10
2019-02-21T23:39:44.320Z,1.20
2019-02-21T23:42:14.830Z,0.97
2019-02-21T23:44:46.064Z,0.83
2019-02-21T23:47:16.557Z,0.90
2019-02-21T23:49:47.054Z,1.00
2019-02-21T23:52:17.574Z,1.10
2019-02-21T23:54:48.155Z,0.93
2019-02-21T23:57:18.675Z,0.80
2019-02-21T23:59:49.170Z,0.83
